Time;durP1;ratioP1;P1;durP2;ratioP2;P2;SDS_P1;SDS_P2;PMS_P1;PMS_P2;Temp;Humidity;BMP_temperature;BMP_pressure;BME280_temperature;BME280_humidity;BME280_pressure;Samples;Min_cycle;Max_cycle;Signal;HPM_P1;HPM_P2
2022/07/07 00:00:46;;;;;;;;;;;23.30;61.00;;;;;;5046276;27;81955;-49
2022/07/07 00:03:11;;;;;;;;;;;23.30;61.00;;;;;;5045997;28;82874;-49
2022/07/07 00:05:38;;;;;;;;;;;23.30;61.00;;;;;;5046539;28;82076;-48
2022/07/07 00:08:03;;;;;;;;;;;23.20;61.00;;;;;;5045978;28;81949;-47
2022/07/07 00:10:29;;;;;;;;;;;23.20;61.10;;;;;;5046315;27;83021;-49
2022/07/07 00:12:55;;;;;;;;;;;23.20;61.00;;;;;;5046032;27;84536;-49
2022/07/07 00:15:20;;;;;;;;;;;23.20;61.20;;;;;;5048985;28;81985;-49
2022/07/07 00:17:46;;;;;;;;;;;23.20;61.10;;;;;;5046091;28;83059;-53
2022/07/07 00:20:11;;;;;;;;;;;23.10;61.00;;;;;;5046936;28;81374;-47
2022/07/07 00:22:37;;;;;;;;;;;23.10;61.10;;;;;;5045998;27;82570;-51
2022/07/07 00:25:03;;;;;;;;;;;23.10;61.00;;;;;;5045876;27;84125;-49
2022/07/07 00:27:28;;;;;;;;;;;23.10;61.00;;;;;;5045386;27;82927;-49
2022/07/07 00:29:54;;;;;;;;;;;23.10;61.10;;;;;;5046074;28;83527;-51
2022/07/07 00:32:19;;;;;;;;;;;23.10;61.10;;;;;;5045839;28;82022;-48
2022/07/07 00:34:45;;;;;;;;;;;23.10;61.20;;;;;;5045747;27;82049;-50
2022/07/07 00:37:10;;;;;;;;;;;23.00;61.20;;;;;;5048825;28;82757;-48
2022/07/07 00:39:36;;;;;;;;;;;23.10;61.10;;;;;;5046015;28;82130;-51
2022/07/07 00:42:01;;;;;;;;;;;23.00;61.20;;;;;;5045765;28;82007;-48
2022/07/07 00:44:27;;;;;;;;;;;23.00;61.20;;;;;;5046347;27;82579;-47
2022/07/07 00:46:54;;;;;;;;;;;22.90;61.20;;;;;;5045412;27;82074;-49
2022/07/07 00:49:20;;;;;;;;;;;23.00;61.20;;;;;;5045761;27;84002;-48
2022/07/07 00:51:45;;;;;;;;;;;22.90;61.20;;;;;;5045042;28;83612;-51
2022/07/07 00:54:11;;;;;;;;;;;23.00;61.20;;;;;;5046116;27;82039;-50
2022/07/07 00:56:37;;;;;;;;;;;22.90;61.20;;;;;;5045674;27;83087;-50
2022/07/07 00:59:06;;;;;;;;;;;22.90;61.10;;;;;;5048097;27;83046;-47
2022/07/07 01:01:33;;;;;;;;;;;22.90;61.20;;;;;;5045630;27;81963;-49
2022/07/07 01:03:59;;;;;;;;;;;22.90;61.20;;;;;;5045369;27;84439;-49
2022/07/07 01:06:24;;;;;;;;;;;22.80;61.30;;;;;;5045691;27;82062;-48
2022/07/07 01:08:51;;;;;;;;;;;22.80;61.20;;;;;;5045959;27;83501;-49
2022/07/07 01:11:16;;;;;;;;;;;22.80;61.30;;;;;;5045444;27;83020;-49
2022/07/07 01:13:42;;;;;;;;;;;22.80;61.20;;;;;;5045637;28;82167;-50
2022/07/07 01:16:07;;;;;;;;;;;22.80;61.20;;;;;;5044758;28;82956;-49
2022/07/07 01:18:33;;;;;;;;;;;22.80;61.20;;;;;;5045535;27;83167;-50
2022/07/07 01:21:00;;;;;;;;;;;22.80;61.10;;;;;;5051804;27;82256;-49
2022/07/07 01:23:26;;;;;;;;;;;22.80;61.10;;;;;;5048801;27;83627;-50
2022/07/07 01:25:51;;;;;;;;;;;22.80;61.10;;;;;;5048885;28;82005;-50
2022/07/07 01:28:17;;;;;;;;;;;22.80;61.10;;;;;;5048992;28;82233;-50
2022/07/07 01:30:42;;;;;;;;;;;22.80;61.00;;;;;;5048671;28;83263;-47
2022/07/07 01:33:08;;;;;;;;;;;22.80;61.10;;;;;;5049334;27;81399;-49
2022/07/07 01:35:33;;;;;;;;;;;22.70;61.20;;;;;;5048928;28;81970;-49
2022/07/07 01:37:59;;;;;;;;;;;22.70;61.10;;;;;;5048311;27;84624;-51
2022/07/07 01:40:24;;;;;;;;;;;22.70;61.10;;;;;;5050735;28;84883;-51
2022/07/07 01:42:50;;;;;;;;;;;22.70;61.10;;;;;;5048491;27;83212;-52
2022/07/07 01:45:15;;;;;;;;;;;22.70;61.10;;;;;;5048610;27;82356;-50
2022/07/07 01:47:41;;;;;;;;;;;22.70;61.10;;;;;;5048140;27;82474;-49
2022/07/07 01:50:07;;;;;;;;;;;22.70;61.10;;;;;;5048552;27;82330;-51
2022/07/07 01:52:32;;;;;;;;;;;22.60;61.10;;;;;;5048648;27;81954;-53
2022/07/07 01:54:57;;;;;;;;;;;22.60;61.10;;;;;;5048378;28;83975;-53
2022/07/07 01:57:23;;;;;;;;;;;22.60;61.10;;;;;;5048991;28;82390;-51
2022/07/07 01:59:48;;;;;;;;;;;22.60;61.10;;;;;;5048342;28;82037;-50
2022/07/07 02:02:14;;;;;;;;;;;22.60;61.10;;;;;;5051061;28;82568;-49
2022/07/07 02:04:40;;;;;;;;;;;22.60;61.20;;;;;;5047789;27;83089;-49
2022/07/07 02:07:05;;;;;;;;;;;22.50;61.10;;;;;;5048298;27;83830;-51
2022/07/07 02:09:31;;;;;;;;;;;22.50;61.10;;;;;;5047862;27;84561;-48
2022/07/07 02:11:56;;;;;;;;;;;22.50;61.20;;;;;;5048331;27;82037;-49
2022/07/07 02:14:22;;;;;;;;;;;22.50;61.20;;;;;;5048295;28;81889;-48
2022/07/07 02:16:47;;;;;;;;;;;22.50;61.10;;;;;;5047768;28;83544;-49
2022/07/07 02:19:13;;;;;;;;;;;22.50;61.10;;;;;;5048200;28;82077;-49
2022/07/07 02:21:38;;;;;;;;;;;22.50;61.10;;;;;;5048677;28;82589;-50
2022/07/07 02:24:04;;;;;;;;;;;22.40;61.10;;;;;;5050820;28;83143;-52
2022/07/07 02:26:33;;;;;;;;;;;22.40;61.10;;;;;;5048228;28;82337;-50
2022/07/07 02:28:58;;;;;;;;;;;22.40;61.10;;;;;;5046877;27;85796;-48
2022/07/07 02:31:23;;;;;;;;;;;22.40;61.00;;;;;;5047449;28;82110;-49
2022/07/07 02:33:49;;;;;;;;;;;22.40;61.20;;;;;;5046509;27;84068;-51
2022/07/07 02:36:15;;;;;;;;;;;22.40;61.20;;;;;;5047983;28;83021;-48
2022/07/07 02:38:40;;;;;;;;;;;22.30;61.10;;;;;;5047665;27;82049;-47
2022/07/07 02:41:06;;;;;;;;;;;22.30;61.10;;;;;;5047519;27;84090;-48
2022/07/07 02:43:32;;;;;;;;;;;22.30;61.00;;;;;;5047803;27;83255;-49
2022/07/07 02:45:58;;;;;;;;;;;22.30;61.10;;;;;;5050503;27;81486;-47
2022/07/07 02:48:24;;;;;;;;;;;22.30;61.30;;;;;;5047440;28;83285;-49
2022/07/07 02:50:50;;;;;;;;;;;22.30;61.20;;;;;;5047434;27;82135;-49
2022/07/07 02:53:16;;;;;;;;;;;22.20;61.10;;;;;;5047104;27;82964;-51
2022/07/07 02:55:42;;;;;;;;;;;22.20;61.10;;;;;;5047475;28;83162;-48
2022/07/07 02:58:08;;;;;;;;;;;22.20;61.80;;;;;;5047588;28;82039;-51
2022/07/07 03:00:34;;;;;;;;;;;22.20;61.30;;;;;;5047260;27;82410;-49
2022/07/07 03:03:00;;;;;;;;;;;22.20;61.30;;;;;;5046916;27;84575;-51
2022/07/07 03:05:26;;;;;;;;;;;22.20;61.30;;;;;;5047550;27;82140;-53
2022/07/07 03:07:51;;;;;;;;;;;22.10;61.20;;;;;;5050057;27;82951;-51
2022/07/07 03:10:17;;;;;;;;;;;22.10;61.10;;;;;;5047998;28;81133;-51
2022/07/07 03:12:42;;;;;;;;;;;22.10;61.20;;;;;;5047377;28;81826;-51
2022/07/07 03:15:08;;;;;;;;;;;22.10;61.10;;;;;;5047201;28;82988;-49
2022/07/07 03:17:34;;;;;;;;;;;22.10;61.20;;;;;;5046481;27;83069;-51
2022/07/07 03:19:59;;;;;;;;;;;22.10;61.20;;;;;;5046811;27;84537;-49
2022/07/07 03:22:25;;;;;;;;;;;22.10;61.20;;;;;;5047126;28;83381;-49
2022/07/07 03:24:50;;;;;;;;;;;22.00;61.20;;;;;;5045922;28;82087;-50
2022/07/07 03:27:16;;;;;;;;;;;22.00;61.20;;;;;;5047159;28;82458;-48
2022/07/07 03:29:42;;;;;;;;;;;22.00;61.20;;;;;;5049434;27;84328;-48
2022/07/07 03:32:07;;;;;;;;;;;22.00;61.20;;;;;;5047138;27;81888;-49
2022/07/07 03:34:33;;;;;;;;;;;21.90;61.30;;;;;;5047119;28;83317;-49
2022/07/07 03:36:58;;;;;;;;;;;21.90;61.20;;;;;;5046942;28;81983;-48
2022/07/07 03:39:24;;;;;;;;;;;21.90;61.30;;;;;;5046678;28;83273;-49
2022/07/07 03:41:49;;;;;;;;;;;21.90;61.30;;;;;;5045111;27;85354;-49
2022/07/07 03:44:15;;;;;;;;;;;21.90;61.40;;;;;;5046698;28;82118;-50
2022/07/07 03:46:40;;;;;;;;;;;21.90;61.30;;;;;;5046131;28;82081;-49
2022/07/07 03:49:06;;;;;;;;;;;21.90;61.20;;;;;;5049211;28;83082;-48
2022/07/07 03:51:32;;;;;;;;;;;21.90;61.20;;;;;;5046920;28;82437;-50
2022/07/07 03:53:57;;;;;;;;;;;21.90;61.20;;;;;;5046584;28;82211;-50
2022/07/07 03:56:23;;;;;;;;;;;21.90;61.20;;;;;;5046533;28;82081;-51
2022/07/07 03:58:48;;;;;;;;;;;21.80;61.80;;;;;;5047219;28;82463;-52
2022/07/07 04:01:14;;;;;;;;;;;21.80;61.30;;;;;;5046161;28;83195;-49
2022/07/07 04:03:39;;;;;;;;;;;21.80;61.40;;;;;;5046584;27;81979;-51
2022/07/07 04:06:05;;;;;;;;;;;21.80;61.40;;;;;;5045797;28;83012;-49
2022/07/07 04:08:31;;;;;;;;;;;21.80;61.40;;;;;;5046308;27;82956;-49
2022/07/07 04:10:56;;;;;;;;;;;21.70;61.40;;;;;;5049271;28;82013;-51
2022/07/07 04:13:22;;;;;;;;;;;21.70;61.30;;;;;;5046508;28;82208;-48
2022/07/07 04:15:47;;;;;;;;;;;21.70;61.40;;;;;;5046425;28;82081;-48
2022/07/07 04:18:13;;;;;;;;;;;21.70;61.30;;;;;;5046213;28;82346;-49
2022/07/07 04:20:38;;;;;;;;;;;21.70;61.30;;;;;;5046112;28;82769;-51
2022/07/07 04:23:04;;;;;;;;;;;21.70;61.30;;;;;;5046934;28;81226;-48
2022/07/07 04:25:29;;;;;;;;;;;21.70;61.40;;;;;;5046354;28;82478;-48
2022/07/07 04:27:54;;;;;;;;;;;21.70;61.50;;;;;;5046204;28;82999;-48
2022/07/07 04:30:20;;;;;;;;;;;21.60;61.40;;;;;;5045521;28;83014;-48
2022/07/07 04:32:45;;;;;;;;;;;21.70;61.40;;;;;;5048638;28;82927;-47
2022/07/07 04:35:11;;;;;;;;;;;21.60;61.40;;;;;;5046224;28;82062;-47
2022/07/07 04:37:37;;;;;;;;;;;21.60;61.40;;;;;;5045638;28;83125;-47
2022/07/07 04:40:03;;;;;;;;;;;21.60;61.50;;;;;;5045799;28;83001;-49
2022/07/07 04:42:29;;;;;;;;;;;21.60;61.50;;;;;;5045856;27;82597;-53
2022/07/07 04:44:54;;;;;;;;;;;21.60;61.50;;;;;;5045988;28;82465;-49
2022/07/07 04:47:20;;;;;;;;;;;21.60;61.50;;;;;;5045613;28;82111;-47
2022/07/07 04:49:45;;;;;;;;;;;21.60;61.40;;;;;;5045835;27;82210;-52
2022/07/07 04:52:11;;;;;;;;;;;21.60;61.40;;;;;;5045752;28;82538;-49
2022/07/07 04:54:36;;;;;;;;;;;21.60;61.40;;;;;;5050933;27;84000;-49
2022/07/07 04:57:02;;;;;;;;;;;21.60;61.40;;;;;;5049218;27;84882;-51
2022/07/07 04:59:28;;;;;;;;;;;21.60;61.50;;;;;;5049447;27;82930;-50
2022/07/07 05:01:53;;;;;;;;;;;21.60;61.40;;;;;;5049364;28;82141;-50
2022/07/07 05:04:19;;;;;;;;;;;21.60;61.40;;;;;;5049521;28;81763;-48
2022/07/07 05:06:44;;;;;;;;;;;21.70;61.40;;;;;;5049189;28;82140;-50
2022/07/07 05:09:10;;;;;;;;;;;21.60;61.30;;;;;;5049458;28;81978;-50
2022/07/07 05:11:36;;;;;;;;;;;21.60;61.30;;;;;;5049601;27;83827;-49
2022/07/07 05:14:01;;;;;;;;;;;21.60;61.50;;;;;;5049059;27;82932;-51
2022/07/07 05:16:28;;;;;;;;;;;21.60;61.60;;;;;;5052001;27;82036;-50
2022/07/07 05:18:53;;;;;;;;;;;21.70;61.40;;;;;;5048411;28;83104;-50
2022/07/07 05:21:19;;;;;;;;;;;21.70;61.60;;;;;;5049022;27;82103;-48
2022/07/07 05:23:44;;;;;;;;;;;21.70;61.40;;;;;;5049170;28;82464;-48
2022/07/07 05:26:10;;;;;;;;;;;21.70;61.50;;;;;;5048557;27;82927;-49
2022/07/07 05:28:41;;;;;;;;;;;21.70;61.50;;;;;;5048822;28;81964;-47
2022/07/07 05:31:10;;;;;;;;;;;21.70;61.40;;;;;;5048674;27;82272;-48
2022/07/07 05:33:36;;;;;;;;;;;21.70;61.40;;;;;;5048608;27;83033;-49
2022/07/07 05:36:02;;;;;;;;;;;21.70;61.40;;;;;;5049045;27;81309;-50
2022/07/07 05:38:27;;;;;;;;;;;21.70;61.60;;;;;;5051106;27;82117;-48
2022/07/07 05:40:53;;;;;;;;;;;21.70;61.60;;;;;;5048530;28;82051;-50
2022/07/07 05:43:18;;;;;;;;;;;21.70;61.60;;;;;;5047981;28;82964;-48
2022/07/07 05:45:44;;;;;;;;;;;21.70;61.70;;;;;;5048205;28;83220;-47
2022/07/07 05:48:09;;;;;;;;;;;21.70;61.80;;;;;;5048362;28;82080;-48
2022/07/07 05:50:35;;;;;;;;;;;21.60;61.80;;;;;;5048669;28;82183;-48
2022/07/07 05:53:01;;;;;;;;;;;21.70;61.80;;;;;;5048418;28;82640;-48
2022/07/07 05:55:26;;;;;;;;;;;21.70;61.90;;;;;;5048255;27;82023;-50
2022/07/07 05:57:52;;;;;;;;;;;21.70;61.80;;;;;;5050633;27;82898;-49
2022/07/07 06:00:17;;;;;;;;;;;21.70;61.80;;;;;;5048578;27;81381;-50
2022/07/07 06:02:43;;;;;;;;;;;21.70;61.70;;;;;;5048272;28;82008;-51
2022/07/07 06:05:08;;;;;;;;;;;21.70;61.90;;;;;;5047443;27;82640;-51
2022/07/07 06:07:34;;;;;;;;;;;21.70;61.70;;;;;;5047566;27;83063;-49
2022/07/07 06:09:59;;;;;;;;;;;21.70;61.80;;;;;;5048411;28;83448;-50
2022/07/07 06:12:25;;;;;;;;;;;21.70;61.80;;;;;;5048099;27;82920;-49
2022/07/07 06:14:50;;;;;;;;;;;21.70;61.80;;;;;;5047937;28;82089;-52
2022/07/07 06:17:16;;;;;;;;;;;21.70;61.60;;;;;;5047882;27;82238;-50
2022/07/07 06:19:42;;;;;;;;;;;21.70;61.70;;;;;;5050373;27;82980;-49
2022/07/07 06:22:07;;;;;;;;;;;21.70;61.70;;;;;;5048101;28;81920;-48
2022/07/07 06:24:33;;;;;;;;;;;21.70;61.90;;;;;;5048289;27;81890;-51
2022/07/07 06:26:58;;;;;;;;;;;21.70;61.70;;;;;;5047847;28;82129;-49
2022/07/07 06:29:24;;;;;;;;;;;21.70;61.70;;;;;;5047968;27;82186;-49
2022/07/07 06:31:49;;;;;;;;;;;21.70;61.70;;;;;;5046886;28;84091;-49
2022/07/07 06:34:15;;;;;;;;;;;21.70;61.80;;;;;;5047751;28;82201;-48
2022/07/07 06:36:40;;;;;;;;;;;21.70;61.80;;;;;;5047621;28;82019;-51
2022/07/07 06:39:06;;;;;;;;;;;21.70;61.80;;;;;;5047339;28;83435;-49
2022/07/07 06:41:35;;;;;;;;;;;21.70;61.80;;;;;;5050556;27;82084;-49
2022/07/07 06:44:01;;;;;;;;;;;21.70;62.00;;;;;;5047385;28;83018;-47
2022/07/07 06:46:27;;;;;;;;;;;21.70;61.70;;;;;;5046517;28;82110;-48
2022/07/07 06:48:52;;;;;;;;;;;21.70;61.60;;;;;;5048114;28;82491;-48
2022/07/07 06:51:18;;;;;;;;;;;21.70;61.70;;;;;;5047296;28;82966;-50
2022/07/07 06:53:43;;;;;;;;;;;21.70;61.90;;;;;;5047218;28;82296;-50
2022/07/07 06:56:09;;;;;;;;;;;21.70;62.10;;;;;;5046868;28;82959;-49
2022/07/07 06:58:34;;;;;;;;;;;21.70;62.10;;;;;;5047298;28;82862;-48
2022/07/07 07:01:00;;;;;;;;;;;21.70;61.90;;;;;;5047334;28;82110;-49
2022/07/07 07:03:25;;;;;;;;;;;21.70;61.80;;;;;;5049924;28;82062;-50
2022/07/07 07:05:51;;;;;;;;;;;21.70;61.90;;;;;;5047185;27;82920;-48
2022/07/07 07:08:16;;;;;;;;;;;21.80;62.00;;;;;;5047343;28;82434;-49
2022/07/07 07:10:42;;;;;;;;;;;21.70;61.80;;;;;;5047010;28;83019;-51
2022/07/07 07:13:07;;;;;;;;;;;21.70;61.90;;;;;;5047604;28;81386;-50
2022/07/07 07:15:33;;;;;;;;;;;21.70;62.00;;;;;;5046606;27;83242;-50
2022/07/07 07:17:58;;;;;;;;;;;21.60;61.90;;;;;;5045578;28;83309;-49
2022/07/07 07:20:24;;;;;;;;;;;21.70;62.10;;;;;;5046641;27;82899;-49
2022/07/07 07:22:50;;;;;;;;;;;21.70;62.00;;;;;;5047018;27;83208;-49
2022/07/07 07:25:17;;;;;;;;;;;21.70;62.50;;;;;;5049772;28;83041;-50
2022/07/07 07:27:42;;;;;;;;;;;21.70;62.00;;;;;;5047010;28;82297;-51
2022/07/07 07:30:08;;;;;;;;;;;21.70;61.90;;;;;;5046558;28;83511;-49
2022/07/07 07:32:34;;;;;;;;;;;21.70;61.90;;;;;;5046960;28;81995;-51
2022/07/07 07:34:59;;;;;;;;;;;21.70;61.80;;;;;;5046983;28;82231;-50
2022/07/07 07:37:25;;;;;;;;;;;21.70;61.80;;;;;;5047020;28;82245;-48
2022/07/07 07:39:50;;;;;;;;;;;21.70;61.80;;;;;;5046539;28;81778;-49
2022/07/07 07:42:16;;;;;;;;;;;21.70;61.90;;;;;;5046683;28;82425;-48
2022/07/07 07:47:26;;;;;;;;;;;21.70;61.80;;;;;;5048985;28;81927;-49
2022/07/07 07:49:51;;;;;;;;;;;21.70;61.90;;;;;;5046367;28;82773;-49
2022/07/07 07:52:17;;;;;;;;;;;21.70;61.90;;;;;;5046251;27;82081;-51
2022/07/07 07:54:42;;;;;;;;;;;21.70;61.80;;;;;;5046744;28;82430;-48
2022/07/07 07:57:08;;;;;;;;;;;21.70;61.80;;;;;;5046528;28;82208;-47
2022/07/07 07:59:33;;;;;;;;;;;21.80;61.70;;;;;;5046425;28;82088;-51
2022/07/07 08:01:59;;;;;;;;;;;21.70;61.60;;;;;;5046678;28;82585;-53
2022/07/07 08:04:24;;;;;;;;;;;21.80;61.90;;;;;;5045868;27;84112;-51
2022/07/07 08:06:50;;;;;;;;;;;21.80;61.70;;;;;;5049206;28;82045;-49
2022/07/07 08:09:15;;;;;;;;;;;21.70;61.90;;;;;;5045399;28;83051;-52
2022/07/07 08:11:41;;;;;;;;;;;21.80;62.10;;;;;;5046485;28;82118;-48
2022/07/07 08:14:06;;;;;;;;;;;21.80;62.00;;;;;;5046404;28;82960;-52
2022/07/07 08:16:32;;;;;;;;;;;21.80;61.70;;;;;;5046238;28;82082;-50
2022/07/07 08:18:57;;;;;;;;;;;21.80;62.00;;;;;;5046314;28;82089;-52
2022/07/07 08:21:23;;;;;;;;;;;21.80;61.90;;;;;;5046181;28;82447;-52
2022/07/07 08:23:48;;;;;;;;;;;21.80;61.80;;;;;;5045992;27;84336;-47
2022/07/07 08:26:14;;;;;;;;;;;21.80;61.80;;;;;;5046857;28;81342;-49
2022/07/07 08:28:40;;;;;;;;;;;21.80;61.60;;;;;;5048532;28;81960;-49
2022/07/07 08:31:06;;;;;;;;;;;21.80;61.50;;;;;;5046073;27;82090;-49
2022/07/07 08:33:32;;;;;;;;;;;21.80;61.60;;;;;;5045605;28;82915;-49
2022/07/07 08:35:58;;;;;;;;;;;21.80;61.50;;;;;;5046058;27;83288;-50
2022/07/07 08:38:23;;;;;;;;;;;21.90;61.40;;;;;;5045917;28;82130;-48
2022/07/07 08:40:49;;;;;;;;;;;21.90;61.30;;;;;;5045594;28;82453;-52
2022/07/07 08:43:15;;;;;;;;;;;21.90;61.30;;;;;;5045642;28;82898;-50
2022/07/07 08:45:41;;;;;;;;;;;21.80;61.40;;;;;;5045411;27;82085;-51
2022/07/07 08:48:06;;;;;;;;;;;21.90;61.30;;;;;;5045366;28;84430;-48
2022/07/07 08:50:37;;;;;;;;;;;21.90;61.30;;;;;;5048718;27;82623;-49
2022/07/07 08:53:03;;;;;;;;;;;21.90;61.40;;;;;;5045935;27;81848;-51
2022/07/07 08:55:30;;;;;;;;;;;21.90;61.30;;;;;;5045662;27;82982;-48
2022/07/07 08:57:56;;;;;;;;;;;21.90;61.30;;;;;;5045116;27;83072;-49
2022/07/07 09:00:22;;;;;;;;;;;21.90;61.30;;;;;;5045609;27;82564;-51
2022/07/07 09:02:49;;;;;;;;;;;21.90;61.40;;;;;;5045659;27;84516;-50
2022/07/07 09:05:15;;;;;;;;;;;21.90;61.50;;;;;;5045440;27;81985;-49
2022/07/07 09:07:58;;;;;;;;;;;22.00;61.50;;;;;;5044218;28;83812;-49
2022/07/07 09:10:28;;;;;;;;;;;21.90;61.30;;;;;;5045416;28;82927;-49
2022/07/07 09:12:54;;;;;;;;;;;22.00;61.40;;;;;;5048213;27;82075;-48
2022/07/07 09:15:19;;;;;;;;;;;22.00;61.50;;;;;;5045941;27;81590;-49
2022/07/07 09:17:45;;;;;;;;;;;22.00;61.40;;;;;;5045684;28;82093;-49
2022/07/07 09:20:14;;;;;;;;;;;22.00;61.30;;;;;;5044060;28;85928;-48
2022/07/07 09:22:42;;;;;;;;;;;22.00;61.30;;;;;;5044652;27;83860;-50
2022/07/07 09:25:08;;;;;;;;;;;22.00;61.30;;;;;;5045075;27;82832;-48
2022/07/07 09:27:47;;;;;;;;;;;22.00;61.20;;;;;;5045429;27;83930;-50
2022/07/07 09:30:13;;;;;;;;;;;22.00;61.10;;;;;;5045501;27;83337;-49
2022/07/07 09:32:46;;;;;;;;;;;22.10;61.10;;;;;;5045427;28;82066;-48
2022/07/07 09:38:13;;;;;;;;;;;22.10;61.10;;;;;;5048118;28;81896;-48
2022/07/07 09:38:30;;;;;;;;;;;22.10;61.00;;;;;;5044867;27;82055;-49
2022/07/07 09:40:53;;;;;;;;;;;22.10;61.00;;;;;;5047254;27;82732;-50
2022/07/07 09:43:19;;;;;;;;;;;22.10;61.10;;;;;;5048536;28;83048;-50
2022/07/07 09:45:48;;;;;;;;;;;22.10;61.10;;;;;;5048752;27;82043;-50
2022/07/07 09:48:14;;;;;;;;;;;22.10;61.10;;;;;;5047718;28;83126;-49
2022/07/07 09:50:39;;;;;;;;;;;22.10;61.10;;;;;;5048228;27;84650;-50
2022/07/07 09:53:08;;;;;;;;;;;22.10;61.20;;;;;;5048649;28;82075;-49
2022/07/07 09:55:33;;;;;;;;;;;22.10;61.20;;;;;;5051186;27;82052;-50
2022/07/07 09:57:59;;;;;;;;;;;22.10;61.20;;;;;;5048593;27;82145;-50
2022/07/07 10:00:24;;;;;;;;;;;22.20;61.20;;;;;;5048670;28;82299;-50
2022/07/07 10:02:51;;;;;;;;;;;22.20;61.10;;;;;;5048009;28;83066;-53
2022/07/07 10:05:17;;;;;;;;;;;22.20;61.10;;;;;;5048683;27;81019;-52
2022/07/07 10:07:44;;;;;;;;;;;22.20;61.20;;;;;;5048581;27;82059;-50
2022/07/07 10:10:12;;;;;;;;;;;22.20;61.30;;;;;;5048167;27;83200;-50
2022/07/07 10:12:41;;;;;;;;;;;22.20;61.30;;;;;;5047311;27;83048;-53
2022/07/07 10:15:12;;;;;;;;;;;22.20;61.30;;;;;;5047919;28;83378;-50
2022/07/07 10:17:39;;;;;;;;;;;22.20;61.30;;;;;;5050461;27;83268;-51
2022/07/07 10:20:05;;;;;;;;;;;22.30;61.30;;;;;;5048254;27;82059;-49
2022/07/07 10:22:31;;;;;;;;;;;22.30;61.20;;;;;;5047618;27;84887;-52
2022/07/07 10:24:57;;;;;;;;;;;22.30;61.10;;;;;;5048326;28;82076;-50
2022/07/07 10:27:24;;;;;;;;;;;22.40;61.20;;;;;;5048026;28;81915;-50
2022/07/07 10:29:49;;;;;;;;;;;22.40;61.20;;;;;;5048359;27;81340;-50
2022/07/07 10:32:18;;;;;;;;;;;22.30;61.20;;;;;;5047727;27;82069;-51
2022/07/07 10:34:49;;;;;;;;;;;22.40;61.20;;;;;;5048301;28;82784;-50
2022/07/07 10:37:15;;;;;;;;;;;22.40;61.10;;;;;;5047225;28;83924;-51
2022/07/07 10:39:42;;;;;;;;;;;22.40;61.10;;;;;;5050489;28;82072;-50
2022/07/07 10:42:16;;;;;;;;;;;22.40;61.00;;;;;;5047199;27;84652;-55
2022/07/07 10:44:43;;;;;;;;;;;22.50;61.10;;;;;;5047760;28;82103;-52
2022/07/07 10:47:09;;;;;;;;;;;22.50;61.10;;;;;;5047361;27;84565;-51
2022/07/07 10:49:49;;;;;;;;;;;22.50;61.10;;;;;;5047579;28;83129;-50
2022/07/07 10:52:15;;;;;;;;;;;22.50;61.10;;;;;;5047393;27;82026;-50
2022/07/07 10:54:45;;;;;;;;;;;22.50;61.10;;;;;;5048291;28;82427;-49
2022/07/07 10:57:12;;;;;;;;;;;22.50;61.00;;;;;;5047109;27;83000;-49
2022/07/07 11:00:07;;;;;;;;;;;22.60;61.00;;;;;;5047308;28;82128;-49
2022/07/07 11:02:42;;;;;;;;;;;22.60;60.90;;;;;;5048327;27;84335;-48
2022/07/07 11:05:14;;;;;;;;;;;22.60;61.00;;;;;;5047256;27;82125;-50
2022/07/07 11:08:08;;;;;;;;;;;22.60;61.10;;;;;;5047272;27;82351;-49
2022/07/07 11:10:36;;;;;;;;;;;22.60;61.00;;;;;;5047250;27;82759;-48
2022/07/07 11:13:21;;;;;;;;;;;22.60;61.00;;;;;;5047362;28;82067;-51
2022/07/07 11:15:49;;;;;;;;;;;22.70;61.00;;;;;;5047383;27;83710;-50
2022/07/07 11:18:16;;;;;;;;;;;22.70;60.90;;;;;;5046663;28;84591;-52
2022/07/07 11:20:55;;;;;;;;;;;22.70;60.90;;;;;;5047548;28;81735;-50
2022/07/07 11:23:21;;;;;;;;;;;22.70;60.90;;;;;;5047392;27;81968;-47
2022/07/07 11:25:47;;;;;;;;;;;22.80;60.80;;;;;;5049742;27;82640;-49
2022/07/07 11:28:13;;;;;;;;;;;22.80;60.90;;;;;;5046319;27;83781;-49
2022/07/07 11:30:42;;;;;;;;;;;22.80;60.90;;;;;;5046565;27;82943;-49
2022/07/07 11:33:08;;;;;;;;;;;22.80;60.80;;;;;;5046815;27;82099;-49
2022/07/07 11:35:39;;;;;;;;;;;22.80;60.80;;;;;;5046861;28;83934;-51
2022/07/07 11:38:06;;;;;;;;;;;22.90;60.80;;;;;;5044966;27;85475;-50
2022/07/07 11:40:32;;;;;;;;;;;22.90;60.80;;;;;;5046898;28;82135;-50
2022/07/07 11:43:00;;;;;;;;;;;22.90;60.80;;;;;;5047041;27;82383;-51
2022/07/07 11:45:27;;;;;;;;;;;22.90;60.70;;;;;;5047061;28;82881;-50
2022/07/07 11:47:55;;;;;;;;;;;23.00;60.70;;;;;;5049243;28;82266;-49
2022/07/07 11:50:20;;;;;;;;;;;23.00;60.70;;;;;;5046642;28;83439;-48
2022/07/07 11:52:46;;;;;;;;;;;23.00;60.70;;;;;;5046148;28;83033;-48
2022/07/07 11:55:13;;;;;;;;;;;23.00;60.60;;;;;;5046856;28;82629;-49
2022/07/07 11:57:38;;;;;;;;;;;23.00;60.60;;;;;;5046356;27;84230;-50
2022/07/07 12:00:08;;;;;;;;;;;23.00;60.50;;;;;;5046474;28;82112;-49
2022/07/07 12:02:33;;;;;;;;;;;23.00;60.60;;;;;;5045993;27;82430;-53
2022/07/07 12:04:59;;;;;;;;;;;23.00;60.50;;;;;;5046580;28;83072;-50
2022/07/07 12:07:24;;;;;;;;;;;23.00;60.50;;;;;;5049375;28;82017;-51
2022/07/07 12:09:50;;;;;;;;;;;23.10;60.30;;;;;;5046876;28;82231;-50
2022/07/07 12:12:16;;;;;;;;;;;23.10;60.40;;;;;;5046313;27;82066;-51
2022/07/07 12:14:43;;;;;;;;;;;23.10;60.20;;;;;;5046082;27;83013;-51
2022/07/07 12:17:08;;;;;;;;;;;23.10;60.20;;;;;;5045703;27;83894;-52
2022/07/07 12:19:44;;;;;;;;;;;23.10;60.30;;;;;;5046391;28;82047;-52
2022/07/07 12:22:10;;;;;;;;;;;23.20;60.30;;;;;;5046662;28;82712;-48
2022/07/07 12:24:35;;;;;;;;;;;23.20;60.10;;;;;;5046138;28;83133;-50
2022/07/07 12:27:01;;;;;;;;;;;23.20;60.20;;;;;;5045823;28;82162;-48
2022/07/07 12:29:26;;;;;;;;;;;23.20;60.20;;;;;;5048931;28;82475;-51
2022/07/07 12:31:52;;;;;;;;;;;23.20;60.20;;;;;;5046232;28;82082;-49
2022/07/07 12:34:27;;;;;;;;;;;23.20;60.30;;;;;;5046750;28;82155;-49
2022/07/07 12:36:53;;;;;;;;;;;23.20;60.20;;;;;;5046159;27;83036;-52
2022/07/07 12:39:19;;;;;;;;;;;23.30;60.10;;;;;;5045736;27;81944;-51
2022/07/07 12:41:47;;;;;;;;;;;23.30;60.10;;;;;;5044820;27;85482;-48
2022/07/07 12:44:14;;;;;;;;;;;23.30;60.00;;;;;;5045773;28;83076;-48
2022/07/07 12:46:40;;;;;;;;;;;23.30;60.10;;;;;;5045164;27;82054;-49
2022/07/07 12:49:06;;;;;;;;;;;23.30;60.20;;;;;;5046084;27;82068;-51
2022/07/07 12:51:32;;;;;;;;;;;23.40;60.20;;;;;;5048787;28;83009;-48
2022/07/07 12:53:58;;;;;;;;;;;23.40;60.10;;;;;;5045966;27;82242;-51
2022/07/07 12:56:30;;;;;;;;;;;23.30;60.20;;;;;;5045508;27;82983;-51
2022/07/07 12:58:56;;;;;;;;;;;23.40;60.20;;;;;;5046427;27;81257;-50
2022/07/07 13:01:23;;;;;;;;;;;23.40;60.30;;;;;;5045935;28;81983;-51
2022/07/07 13:03:53;;;;;;;;;;;23.30;60.10;;;;;;5045453;27;84646;-52
2022/07/07 13:06:19;;;;;;;;;;;23.40;60.20;;;;;;5044942;27;83014;-49
2022/07/07 13:08:45;;;;;;;;;;;23.40;60.30;;;;;;5045566;27;83382;-50
2022/07/07 13:11:11;;;;;;;;;;;23.40;60.20;;;;;;5045580;28;83065;-53
2022/07/07 13:13:37;;;;;;;;;;;23.50;60.20;;;;;;5048583;27;82116;-51
2022/07/07 13:16:03;;;;;;;;;;;23.50;60.10;;;;;;5048915;28;84441;-50
2022/07/07 13:18:28;;;;;;;;;;;23.50;60.10;;;;;;5049034;27;82497;-48
2022/07/07 13:20:56;;;;;;;;;;;23.50;60.00;;;;;;5049454;27;82030;-51
2022/07/07 13:23:22;;;;;;;;;;;23.60;60.00;;;;;;5049378;27;82902;-48
2022/07/07 13:25:48;;;;;;;;;;;23.60;60.10;;;;;;5048722;27;82082;-50
2022/07/07 13:28:14;;;;;;;;;;;23.50;60.10;;;;;;5049122;27;82303;-50
2022/07/07 13:30:40;;;;;;;;;;;23.60;60.10;;;;;;5048212;27;83606;-50
2022/07/07 13:33:05;;;;;;;;;;;23.60;60.20;;;;;;5048888;28;82074;-49
2022/07/07 13:35:31;;;;;;;;;;;23.60;60.20;;;;;;5051445;28;82410;-49
2022/07/07 13:37:56;;;;;;;;;;;23.60;60.10;;;;;;5048969;27;82072;-51
2022/07/07 13:40:22;;;;;;;;;;;23.60;60.00;;;;;;5048578;28;82404;-48
2022/07/07 13:42:47;;;;;;;;;;;23.70;59.80;;;;;;5048697;28;82764;-48
2022/07/07 13:45:13;;;;;;;;;;;23.70;59.50;;;;;;5049075;28;82096;-49
2022/07/07 13:47:39;;;;;;;;;;;23.70;59.50;;;;;;5048936;28;82415;-50
2022/07/07 13:50:05;;;;;;;;;;;23.70;59.40;;;;;;5048579;28;82106;-49
2022/07/07 13:52:30;;;;;;;;;;;23.80;59.40;;;;;;5048369;27;82110;-51
2022/07/07 13:54:56;;;;;;;;;;;23.80;59.40;;;;;;5047755;27;83722;-50
2022/07/07 13:57:21;;;;;;;;;;;23.70;59.30;;;;;;5051303;28;83045;-50
2022/07/07 13:59:49;;;;;;;;;;;23.80;59.40;;;;;;5048617;28;82796;-50
2022/07/07 14:02:15;;;;;;;;;;;23.80;59.30;;;;;;5048099;27;84670;-49
2022/07/07 14:04:41;;;;;;;;;;;23.90;59.30;;;;;;5048421;27;81987;-49
2022/07/07 14:07:06;;;;;;;;;;;23.90;59.20;;;;;;5048525;27;82210;-50
2022/07/07 14:09:32;;;;;;;;;;;23.90;59.30;;;;;;5047918;27;84171;-53
2022/07/07 14:11:58;;;;;;;;;;;24.00;59.30;;;;;;5049017;27;81323;-49
2022/07/07 14:14:24;;;;;;;;;;;24.00;59.40;;;;;;5048201;27;83528;-50